Weather at Lester B. Pearson International Airport

Public forecast

Using degrees Celsius for public forecast. Weather courtesy of forecast.io.

Current aviation weather report (METAR) for Lester B. Pearson International Airport

Retrieved 2020/10/20 16:00 UTC (58 minutes ago):

CYYZ 201600Z 02009KT 15SM SCT025 BKN250 10/04 A3029 RMK CF3CI4 SLP262

Aviation forecast (TAF) for Lester B. Pearson International Airport

Retrieved 2020/10/20 15:39 UTC (1 hour ago):

TAF CYYZ 201438Z 2015/2118 36010KT P6SM FEW030 SCT050 BKN250 FM201700 02012KT P6SM SCT030 BKN200 FM210200 07008KT P6SM BKN020 OVC040 FM210500 10010KT 6SM -DZ BR BKN008 OVC015 FM210700 12010KT 4SM -RA BR OVC005 FM211100 18010KT 2SM -RA BR OVC003 BECMG 2113/2115 24015G25KT FM211500 24015G25KT 5SM -RA BR FEW006 OVC012 FM211700 25018G30KT P6SM BKN025 RMK NXT FCST BY 201800Z